sensor_id;sensor_type;location;lat;lon;timestamp;P1;durP1;ratioP1;P2;durP2;ratioP2
68010;SDS011;54794;48.348;7.878;2024-03-07T00:00:10;4.10;;;2.45;;
68010;SDS011;54794;48.348;7.878;2024-03-07T00:02:45;3.90;;;2.47;;
68010;SDS011;54794;48.348;7.878;2024-03-07T00:05:16;4.20;;;2.72;;
68010;SDS011;54794;48.348;7.878;2024-03-07T00:07:45;2.92;;;2.47;;
68010;SDS011;54794;48.348;7.878;2024-03-07T00:10:13;3.53;;;2.40;;
68010;SDS011;54794;48.348;7.878;2024-03-07T00:12:42;5.20;;;2.63;;
68010;SDS011;54794;48.348;7.878;2024-03-07T00:15:11;3.90;;;2.38;;
68010;SDS011;54794;48.348;7.878;2024-03-07T00:17:39;3.70;;;2.55;;
68010;SDS011;54794;48.348;7.878;2024-03-07T00:20:08;4.35;;;2.42;;
68010;SDS011;54794;48.348;7.878;2024-03-07T00:22:41;3.97;;;2.22;;
68010;SDS011;54794;48.348;7.878;2024-03-07T00:25:08;4.45;;;2.70;;
68010;SDS011;54794;48.348;7.878;2024-03-07T00:27:37;6.28;;;3.25;;
68010;SDS011;54794;48.348;7.878;2024-03-07T00:30:05;5.70;;;3.33;;
68010;SDS011;54794;48.348;7.878;2024-03-07T00:32:35;5.32;;;2.95;;
68010;SDS011;54794;48.348;7.878;2024-03-07T00:35:06;4.45;;;2.60;;
68010;SDS011;54794;48.348;7.878;2024-03-07T00:37:37;7.18;;;2.88;;
68010;SDS011;54794;48.348;7.878;2024-03-07T00:40:04;5.63;;;2.95;;
68010;SDS011;54794;48.348;7.878;2024-03-07T00:42:32;4.28;;;3.03;;
68010;SDS011;54794;48.348;7.878;2024-03-07T00:45:00;4.10;;;2.53;;
68010;SDS011;54794;48.348;7.878;2024-03-07T00:47:27;5.10;;;2.97;;
68010;SDS011;54794;48.348;7.878;2024-03-07T00:49:55;2.60;;;1.98;;
68010;SDS011;54794;48.348;7.878;2024-03-07T00:52:22;3.60;;;2.15;;
68010;SDS011;54794;48.348;7.878;2024-03-07T00:54:49;2.60;;;2.10;;
68010;SDS011;54794;48.348;7.878;2024-03-07T00:57:16;3.03;;;2.05;;
68010;SDS011;54794;48.348;7.878;2024-03-07T00:59:43;3.20;;;2.17;;
68010;SDS011;54794;48.348;7.878;2024-03-07T01:02:10;3.22;;;1.90;;
68010;SDS011;54794;48.348;7.878;2024-03-07T01:04:37;3.20;;;2.28;;
68010;SDS011;54794;48.348;7.878;2024-03-07T01:07:04;3.30;;;2.35;;
68010;SDS011;54794;48.348;7.878;2024-03-07T01:09:31;3.30;;;1.85;;
68010;SDS011;54794;48.348;7.878;2024-03-07T01:11:58;2.40;;;1.80;;
68010;SDS011;54794;48.348;7.878;2024-03-07T01:14:26;3.03;;;2.33;;
68010;SDS011;54794;48.348;7.878;2024-03-07T01:16:53;6.68;;;3.20;;
68010;SDS011;54794;48.348;7.878;2024-03-07T01:19:20;4.50;;;2.63;;
68010;SDS011;54794;48.348;7.878;2024-03-07T01:21:48;6.82;;;2.97;;
68010;SDS011;54794;48.348;7.878;2024-03-07T01:24:15;4.55;;;2.92;;
68010;SDS011;54794;48.348;7.878;2024-03-07T01:26:46;3.78;;;2.33;;
68010;SDS011;54794;48.348;7.878;2024-03-07T01:31:42;1.80;;;1.50;;
68010;SDS011;54794;48.348;7.878;2024-03-07T01:34:09;2.88;;;2.38;;
68010;SDS011;54794;48.348;7.878;2024-03-07T01:36:36;3.45;;;2.53;;
68010;SDS011;54794;48.348;7.878;2024-03-07T01:39:04;2.78;;;1.98;;
68010;SDS011;54794;48.348;7.878;2024-03-07T01:41:31;3.65;;;2.22;;
68010;SDS011;54794;48.348;7.878;2024-03-07T01:44:00;2.60;;;1.92;;
68010;SDS011;54794;48.348;7.878;2024-03-07T01:46:28;2.25;;;1.92;;
68010;SDS011;54794;48.348;7.878;2024-03-07T01:48:57;2.97;;;2.45;;
68010;SDS011;54794;48.348;7.878;2024-03-07T01:51:25;4.20;;;2.53;;
68010;SDS011;54794;48.348;7.878;2024-03-07T01:53:53;3.67;;;2.65;;
68010;SDS011;54794;48.348;7.878;2024-03-07T01:56:20;2.97;;;2.20;;
68010;SDS011;54794;48.348;7.878;2024-03-07T01:58:48;3.30;;;2.22;;
68010;SDS011;54794;48.348;7.878;2024-03-07T02:01:18;3.70;;;2.08;;
68010;SDS011;54794;48.348;7.878;2024-03-07T02:03:45;2.90;;;2.17;;
68010;SDS011;54794;48.348;7.878;2024-03-07T02:06:12;3.65;;;2.25;;
68010;SDS011;54794;48.348;7.878;2024-03-07T02:08:40;2.85;;;2.05;;
68010;SDS011;54794;48.348;7.878;2024-03-07T02:11:07;4.07;;;2.15;;
68010;SDS011;54794;48.348;7.878;2024-03-07T02:13:36;3.38;;;2.35;;
68010;SDS011;54794;48.348;7.878;2024-03-07T02:16:03;3.08;;;2.38;;
68010;SDS011;54794;48.348;7.878;2024-03-07T02:18:30;2.83;;;2.20;;
68010;SDS011;54794;48.348;7.878;2024-03-07T02:20:57;2.83;;;2.30;;
68010;SDS011;54794;48.348;7.878;2024-03-07T02:23:26;3.78;;;2.80;;
68010;SDS011;54794;48.348;7.878;2024-03-07T02:25:54;3.53;;;2.40;;
68010;SDS011;54794;48.348;7.878;2024-03-07T02:28:21;4.03;;;2.40;;
68010;SDS011;54794;48.348;7.878;2024-03-07T02:30:47;3.10;;;2.17;;
68010;SDS011;54794;48.348;7.878;2024-03-07T02:33:14;2.83;;;2.30;;
68010;SDS011;54794;48.348;7.878;2024-03-07T02:35:41;4.00;;;2.75;;
68010;SDS011;54794;48.348;7.878;2024-03-07T02:38:08;3.30;;;2.42;;
68010;SDS011;54794;48.348;7.878;2024-03-07T02:43:02;4.50;;;2.60;;
68010;SDS011;54794;48.348;7.878;2024-03-07T02:45:31;4.75;;;3.17;;
68010;SDS011;54794;48.348;7.878;2024-03-07T02:47:58;5.20;;;3.47;;
68010;SDS011;54794;48.348;7.878;2024-03-07T02:50:25;6.15;;;4.10;;
68010;SDS011;54794;48.348;7.878;2024-03-07T02:52:52;6.43;;;3.95;;
68010;SDS011;54794;48.348;7.878;2024-03-07T02:55:19;6.90;;;4.18;;
68010;SDS011;54794;48.348;7.878;2024-03-07T02:57:46;6.78;;;4.28;;
68010;SDS011;54794;48.348;7.878;2024-03-07T03:02:52;5.45;;;3.88;;
68010;SDS011;54794;48.348;7.878;2024-03-07T03:05:19;5.63;;;3.90;;
68010;SDS011;54794;48.348;7.878;2024-03-07T03:07:46;7.25;;;3.70;;
68010;SDS011;54794;48.348;7.878;2024-03-07T03:10:21;6.75;;;3.97;;
68010;SDS011;54794;48.348;7.878;2024-03-07T03:12:52;6.75;;;4.38;;
68010;SDS011;54794;48.348;7.878;2024-03-07T03:15:20;6.35;;;4.32;;
68010;SDS011;54794;48.348;7.878;2024-03-07T03:17:47;7.07;;;5.03;;
68010;SDS011;54794;48.348;7.878;2024-03-07T03:22:51;4.75;;;3.15;;
68010;SDS011;54794;48.348;7.878;2024-03-07T03:25:39;7.93;;;4.13;;
68010;SDS011;54794;48.348;7.878;2024-03-07T03:28:07;7.55;;;4.32;;
68010;SDS011;54794;48.348;7.878;2024-03-07T03:30:38;8.15;;;5.05;;
68010;SDS011;54794;48.348;7.878;2024-03-07T03:33:07;6.35;;;4.60;;
68010;SDS011;54794;48.348;7.878;2024-03-07T03:38:03;6.28;;;3.53;;
68010;SDS011;54794;48.348;7.878;2024-03-07T03:40:30;6.00;;;4.22;;
68010;SDS011;54794;48.348;7.878;2024-03-07T03:42:58;6.88;;;4.47;;
68010;SDS011;54794;48.348;7.878;2024-03-07T03:45:25;6.90;;;4.22;;
68010;SDS011;54794;48.348;7.878;2024-03-07T03:47:52;8.70;;;4.65;;
68010;SDS011;54794;48.348;7.878;2024-03-07T03:50:20;6.80;;;4.70;;
68010;SDS011;54794;48.348;7.878;2024-03-07T03:52:51;6.57;;;4.18;;
68010;SDS011;54794;48.348;7.878;2024-03-07T03:57:46;6.63;;;4.05;;
68010;SDS011;54794;48.348;7.878;2024-03-07T04:00:16;6.68;;;4.32;;
68010;SDS011;54794;48.348;7.878;2024-03-07T04:02:44;6.55;;;4.47;;
68010;SDS011;54794;48.348;7.878;2024-03-07T04:05:17;6.57;;;4.85;;
68010;SDS011;54794;48.348;7.878;2024-03-07T04:07:46;9.50;;;5.68;;
68010;SDS011;54794;48.348;7.878;2024-03-07T04:10:14;7.75;;;5.20;;
68010;SDS011;54794;48.348;7.878;2024-03-07T04:12:43;7.55;;;5.10;;
68010;SDS011;54794;48.348;7.878;2024-03-07T04:15:12;7.55;;;5.28;;
68010;SDS011;54794;48.348;7.878;2024-03-07T04:17:45;8.68;;;5.05;;
68010;SDS011;54794;48.348;7.878;2024-03-07T04:20:14;8.23;;;5.18;;
68010;SDS011;54794;48.348;7.878;2024-03-07T04:22:44;8.45;;;5.50;;
68010;SDS011;54794;48.348;7.878;2024-03-07T04:25:11;8.13;;;5.40;;
68010;SDS011;54794;48.348;7.878;2024-03-07T04:27:38;8.63;;;5.20;;
68010;SDS011;54794;48.348;7.878;2024-03-07T04:30:06;8.02;;;5.32;;
68010;SDS011;54794;48.348;7.878;2024-03-07T04:32:38;9.43;;;5.70;;
68010;SDS011;54794;48.348;7.878;2024-03-07T04:35:08;8.02;;;5.57;;
68010;SDS011;54794;48.348;7.878;2024-03-07T04:37:38;6.95;;;4.80;;
68010;SDS011;54794;48.348;7.878;2024-03-07T04:40:05;8.48;;;5.20;;
68010;SDS011;54794;48.348;7.878;2024-03-07T04:42:45;7.57;;;5.10;;
68010;SDS011;54794;48.348;7.878;2024-03-07T04:45:16;7.55;;;4.90;;
68010;SDS011;54794;48.348;7.878;2024-03-07T04:47:46;8.77;;;5.03;;
68010;SDS011;54794;48.348;7.878;2024-03-07T04:50:15;8.98;;;5.63;;
68010;SDS011;54794;48.348;7.878;2024-03-07T04:52:45;7.85;;;5.35;;
68010;SDS011;54794;48.348;7.878;2024-03-07T04:55:13;8.10;;;5.65;;
68010;SDS011;54794;48.348;7.878;2024-03-07T05:00:08;6.05;;;3.95;;
68010;SDS011;54794;48.348;7.878;2024-03-07T05:02:41;5.68;;;4.18;;
68010;SDS011;54794;48.348;7.878;2024-03-07T05:05:08;7.65;;;4.95;;
68010;SDS011;54794;48.348;7.878;2024-03-07T05:07:35;7.90;;;4.97;;
68010;SDS011;54794;48.348;7.878;2024-03-07T05:10:03;7.70;;;4.68;;
68010;SDS011;54794;48.348;7.878;2024-03-07T05:12:32;7.55;;;4.80;;
68010;SDS011;54794;48.348;7.878;2024-03-07T05:14:59;10.27;;;5.10;;
68010;SDS011;54794;48.348;7.878;2024-03-07T05:17:26;7.53;;;5.20;;
68010;SDS011;54794;48.348;7.878;2024-03-07T05:19:55;8.63;;;4.93;;
68010;SDS011;54794;48.348;7.878;2024-03-07T05:22:22;8.63;;;5.45;;
68010;SDS011;54794;48.348;7.878;2024-03-07T05:24:51;8.77;;;5.47;;
68010;SDS011;54794;48.348;7.878;2024-03-07T05:27:19;7.90;;;5.13;;
68010;SDS011;54794;48.348;7.878;2024-03-07T05:29:47;7.28;;;5.22;;
68010;SDS011;54794;48.348;7.878;2024-03-07T05:34:52;8.20;;;5.50;;
68010;SDS011;54794;48.348;7.878;2024-03-07T05:37:20;9.00;;;5.90;;
68010;SDS011;54794;48.348;7.878;2024-03-07T05:39:48;9.23;;;5.85;;
68010;SDS011;54794;48.348;7.878;2024-03-07T05:42:15;10.10;;;5.00;;
68010;SDS011;54794;48.348;7.878;2024-03-07T05:44:42;7.80;;;5.70;;
68010;SDS011;54794;48.348;7.878;2024-03-07T05:47:13;8.65;;;5.15;;
68010;SDS011;54794;48.348;7.878;2024-03-07T05:49:40;8.80;;;5.88;;
68010;SDS011;54794;48.348;7.878;2024-03-07T05:52:08;9.02;;;5.95;;
68010;SDS011;54794;48.348;7.878;2024-03-07T05:54:35;9.23;;;5.88;;
68010;SDS011;54794;48.348;7.878;2024-03-07T05:57:02;9.43;;;5.72;;
68010;SDS011;54794;48.348;7.878;2024-03-07T06:01:58;6.32;;;4.45;;
68010;SDS011;54794;48.348;7.878;2024-03-07T06:04:25;7.78;;;5.25;;
68010;SDS011;54794;48.348;7.878;2024-03-07T06:06:52;8.57;;;5.40;;
68010;SDS011;54794;48.348;7.878;2024-03-07T06:09:20;7.80;;;4.70;;
68010;SDS011;54794;48.348;7.878;2024-03-07T06:11:50;7.60;;;4.97;;
68010;SDS011;54794;48.348;7.878;2024-03-07T06:14:17;7.57;;;4.80;;
68010;SDS011;54794;48.348;7.878;2024-03-07T06:16:44;9.52;;;5.47;;
68010;SDS011;54794;48.348;7.878;2024-03-07T06:19:11;8.77;;;5.72;;
68010;SDS011;54794;48.348;7.878;2024-03-07T06:24:07;7.18;;;4.53;;
68010;SDS011;54794;48.348;7.878;2024-03-07T06:26:37;8.85;;;5.25;;
68010;SDS011;54794;48.348;7.878;2024-03-07T06:29:13;7.93;;;5.13;;
68010;SDS011;54794;48.348;7.878;2024-03-07T06:31:45;9.23;;;5.13;;
68010;SDS011;54794;48.348;7.878;2024-03-07T06:34:13;9.80;;;5.38;;
68010;SDS011;54794;48.348;7.878;2024-03-07T06:36:40;9.10;;;5.90;;
68010;SDS011;54794;48.348;7.878;2024-03-07T06:39:07;11.98;;;5.47;;
68010;SDS011;54794;48.348;7.878;2024-03-07T06:41:37;8.65;;;5.72;;
68010;SDS011;54794;48.348;7.878;2024-03-07T06:44:05;8.80;;;5.60;;
68010;SDS011;54794;48.348;7.878;2024-03-07T06:46:33;10.05;;;5.45;;
68010;SDS011;54794;48.348;7.878;2024-03-07T06:49:01;8.52;;;5.45;;
68010;SDS011;54794;48.348;7.878;2024-03-07T06:51:28;7.57;;;4.60;;
68010;SDS011;54794;48.348;7.878;2024-03-07T06:53:55;7.63;;;5.40;;
68010;SDS011;54794;48.348;7.878;2024-03-07T06:58:51;6.28;;;3.95;;
68010;SDS011;54794;48.348;7.878;2024-03-07T07:01:18;7.07;;;4.45;;
68010;SDS011;54794;48.348;7.878;2024-03-07T07:03:46;8.30;;;4.75;;
68010;SDS011;54794;48.348;7.878;2024-03-07T07:06:16;8.07;;;4.70;;
68010;SDS011;54794;48.348;7.878;2024-03-07T07:08:43;8.02;;;5.32;;
68010;SDS011;54794;48.348;7.878;2024-03-07T07:11:11;8.70;;;5.63;;
68010;SDS011;54794;48.348;7.878;2024-03-07T07:13:39;8.55;;;5.07;;
68010;SDS011;54794;48.348;7.878;2024-03-07T07:16:08;9.32;;;5.78;;
68010;SDS011;54794;48.348;7.878;2024-03-07T07:18:35;9.40;;;5.47;;
68010;SDS011;54794;48.348;7.878;2024-03-07T07:21:03;9.70;;;5.63;;
68010;SDS011;54794;48.348;7.878;2024-03-07T07:23:30;10.63;;;6.28;;
68010;SDS011;54794;48.348;7.878;2024-03-07T07:25:57;8.63;;;5.65;;
68010;SDS011;54794;48.348;7.878;2024-03-07T07:28:24;10.50;;;5.95;;
68010;SDS011;54794;48.348;7.878;2024-03-07T07:30:51;9.25;;;5.13;;
68010;SDS011;54794;48.348;7.878;2024-03-07T07:33:18;14.25;;;6.75;;
68010;SDS011;54794;48.348;7.878;2024-03-07T07:35:45;11.02;;;6.03;;
68010;SDS011;54794;48.348;7.878;2024-03-07T07:38:12;12.07;;;6.22;;
68010;SDS011;54794;48.348;7.878;2024-03-07T07:40:41;10.95;;;6.25;;
68010;SDS011;54794;48.348;7.878;2024-03-07T07:43:07;11.82;;;5.80;;
68010;SDS011;54794;48.348;7.878;2024-03-07T07:45:36;10.80;;;5.93;;
68010;SDS011;54794;48.348;7.878;2024-03-07T07:48:04;10.85;;;6.13;;
68010;SDS011;54794;48.348;7.878;2024-03-07T07:53:00;9.40;;;5.05;;
68010;SDS011;54794;48.348;7.878;2024-03-07T07:55:31;8.50;;;5.18;;
68010;SDS011;54794;48.348;7.878;2024-03-07T07:57:58;12.63;;;6.00;;
68010;SDS011;54794;48.348;7.878;2024-03-07T08:00:27;9.48;;;5.50;;
68010;SDS011;54794;48.348;7.878;2024-03-07T08:08:00;10.32;;;5.82;;
68010;SDS011;54794;48.348;7.878;2024-03-07T08:10:37;10.07;;;5.93;;
68010;SDS011;54794;48.348;7.878;2024-03-07T08:13:09;10.18;;;6.13;;
68010;SDS011;54794;48.348;7.878;2024-03-07T08:15:36;12.20;;;6.40;;
68010;SDS011;54794;48.348;7.878;2024-03-07T08:18:03;13.52;;;6.30;;
68010;SDS011;54794;48.348;7.878;2024-03-07T08:20:38;11.52;;;6.53;;
68010;SDS011;54794;48.348;7.878;2024-03-07T08:23:07;10.25;;;6.25;;
68010;SDS011;54794;48.348;7.878;2024-03-07T08:28:02;12.10;;;6.47;;
68010;SDS011;54794;48.348;7.878;2024-03-07T08:30:29;11.45;;;6.80;;
68010;SDS011;54794;48.348;7.878;2024-03-07T08:32:57;12.48;;;6.60;;
68010;SDS011;54794;48.348;7.878;2024-03-07T08:35:34;10.35;;;6.60;;
68010;SDS011;54794;48.348;7.878;2024-03-07T08:38:01;15.02;;;8.13;;
68010;SDS011;54794;48.348;7.878;2024-03-07T08:40:28;14.52;;;8.95;;
68010;SDS011;54794;48.348;7.878;2024-03-07T08:43:01;15.65;;;9.50;;
68010;SDS011;54794;48.348;7.878;2024-03-07T08:45:33;14.27;;;7.95;;
68010;SDS011;54794;48.348;7.878;2024-03-07T08:48:01;16.05;;;8.73;;
68010;SDS011;54794;48.348;7.878;2024-03-07T08:50:36;11.25;;;6.95;;
68010;SDS011;54794;48.348;7.878;2024-03-07T08:55:31;12.55;;;7.15;;
68010;SDS011;54794;48.348;7.878;2024-03-07T08:57:58;13.77;;;8.20;;
68010;SDS011;54794;48.348;7.878;2024-03-07T09:00:25;14.50;;;7.68;;
68010;SDS011;54794;48.348;7.878;2024-03-07T09:02:54;13.10;;;7.82;;
68010;SDS011;54794;48.348;7.878;2024-03-07T09:05:30;13.02;;;7.28;;
68010;SDS011;54794;48.348;7.878;2024-03-07T09:08:00;13.13;;;8.38;;
68010;SDS011;54794;48.348;7.878;2024-03-07T09:10:27;12.90;;;7.72;;
68010;SDS011;54794;48.348;7.878;2024-03-07T09:12:57;15.48;;;8.30;;
68010;SDS011;54794;48.348;7.878;2024-03-07T09:15:24;14.15;;;8.60;;
68010;SDS011;54794;48.348;7.878;2024-03-07T09:17:51;15.07;;;8.65;;
68010;SDS011;54794;48.348;7.878;2024-03-07T09:20:20;13.10;;;7.70;;
68010;SDS011;54794;48.348;7.878;2024-03-07T09:22:47;13.65;;;8.15;;
68010;SDS011;54794;48.348;7.878;2024-03-07T09:25:15;12.23;;;7.30;;
68010;SDS011;54794;48.348;7.878;2024-03-07T09:27:44;13.32;;;7.47;;
68010;SDS011;54794;48.348;7.878;2024-03-07T09:30:12;13.48;;;7.75;;
68010;SDS011;54794;48.348;7.878;2024-03-07T09:32:41;14.90;;;8.35;;
68010;SDS011;54794;48.348;7.878;2024-03-07T09:35:09;13.75;;;7.70;;
68010;SDS011;54794;48.348;7.878;2024-03-07T09:37:41;15.20;;;8.02;;
68010;SDS011;54794;48.348;7.878;2024-03-07T09:40:10;13.52;;;7.47;;
68010;SDS011;54794;48.348;7.878;2024-03-07T09:42:43;13.45;;;8.38;;
68010;SDS011;54794;48.348;7.878;2024-03-07T09:45:15;14.73;;;8.65;;
68010;SDS011;54794;48.348;7.878;2024-03-07T09:47:45;13.05;;;7.85;;
68010;SDS011;54794;48.348;7.878;2024-03-07T09:50:18;15.10;;;8.48;;
68010;SDS011;54794;48.348;7.878;2024-03-07T09:52:51;14.30;;;8.10;;
68010;SDS011;54794;48.348;7.878;2024-03-07T09:55:21;12.27;;;7.80;;
68010;SDS011;54794;48.348;7.878;2024-03-07T09:57:50;17.13;;;9.48;;
68010;SDS011;54794;48.348;7.878;2024-03-07T10:00:19;15.80;;;8.48;;
68010;SDS011;54794;48.348;7.878;2024-03-07T10:02:56;14.05;;;8.02;;
68010;SDS011;54794;48.348;7.878;2024-03-07T10:05:31;13.57;;;8.20;;
68010;SDS011;54794;48.348;7.878;2024-03-07T10:07:59;15.93;;;8.38;;
68010;SDS011;54794;48.348;7.878;2024-03-07T10:10:27;13.77;;;7.75;;
68010;SDS011;54794;48.348;7.878;2024-03-07T10:12:56;15.45;;;8.82;;
68010;SDS011;54794;48.348;7.878;2024-03-07T10:15:32;13.35;;;8.00;;
68010;SDS011;54794;48.348;7.878;2024-03-07T10:18:01;13.32;;;7.97;;
68010;SDS011;54794;48.348;7.878;2024-03-07T10:20:28;12.52;;;8.07;;
68010;SDS011;54794;48.348;7.878;2024-03-07T10:22:55;14.45;;;8.52;;
68010;SDS011;54794;48.348;7.878;2024-03-07T10:25:26;12.82;;;7.97;;
68010;SDS011;54794;48.348;7.878;2024-03-07T10:27:55;12.88;;;8.20;;
68010;SDS011;54794;48.348;7.878;2024-03-07T10:30:24;12.73;;;7.30;;
68010;SDS011;54794;48.348;7.878;2024-03-07T10:35:22;10.00;;;6.47;;
68010;SDS011;54794;48.348;7.878;2024-03-07T10:37:53;11.73;;;7.90;;
68010;SDS011;54794;48.348;7.878;2024-03-07T10:40:22;16.50;;;8.77;;
68010;SDS011;54794;48.348;7.878;2024-03-07T10:42:56;14.93;;;8.73;;
68010;SDS011;54794;48.348;7.878;2024-03-07T10:45:26;14.48;;;8.93;;
68010;SDS011;54794;48.348;7.878;2024-03-07T10:47:57;13.35;;;8.18;;
68010;SDS011;54794;48.348;7.878;2024-03-07T10:59:18;12.30;;;7.65;;
68010;SDS011;54794;48.348;7.878;2024-03-07T11:04:59;13.35;;;7.88;;
68010;SDS011;54794;48.348;7.878;2024-03-07T11:09:55;10.43;;;6.57;;
68010;SDS011;54794;48.348;7.878;2024-03-07T11:12:23;13.18;;;7.40;;
68010;SDS011;54794;48.348;7.878;2024-03-07T11:14:54;13.70;;;8.57;;
68010;SDS011;54794;48.348;7.878;2024-03-07T11:17:24;14.40;;;9.07;;
68010;SDS011;54794;48.348;7.878;2024-03-07T11:22:28;10.80;;;6.78;;
68010;SDS011;54794;48.348;7.878;2024-03-07T11:25:04;14.48;;;8.00;;
68010;SDS011;54794;48.348;7.878;2024-03-07T11:27:37;14.00;;;8.00;;
68010;SDS011;54794;48.348;7.878;2024-03-07T11:30:10;14.98;;;8.50;;
68010;SDS011;54794;48.348;7.878;2024-03-07T11:32:38;14.93;;;9.18;;
68010;SDS011;54794;48.348;7.878;2024-03-07T11:35:13;12.48;;;8.05;;
68010;SDS011;54794;48.348;7.878;2024-03-07T11:42:52;14.02;;;8.68;;
68010;SDS011;54794;48.348;7.878;2024-03-07T11:45:22;17.88;;;11.30;;
68010;SDS011;54794;48.348;7.878;2024-03-07T11:47:56;16.75;;;9.73;;
68010;SDS011;54794;48.348;7.878;2024-03-07T11:50:27;17.00;;;9.80;;
68010;SDS011;54794;48.348;7.878;2024-03-07T11:52:54;14.15;;;8.85;;
68010;SDS011;54794;48.348;7.878;2024-03-07T11:55:22;13.20;;;8.32;;
68010;SDS011;54794;48.348;7.878;2024-03-07T11:57:50;13.00;;;7.80;;
68010;SDS011;54794;48.348;7.878;2024-03-07T12:00:20;12.48;;;7.40;;
68010;SDS011;54794;48.348;7.878;2024-03-07T12:02:50;13.95;;;7.90;;
68010;SDS011;54794;48.348;7.878;2024-03-07T12:05:20;11.98;;;7.55;;
68010;SDS011;54794;48.348;7.878;2024-03-07T12:07:47;11.98;;;7.65;;
68010;SDS011;54794;48.348;7.878;2024-03-07T12:10:16;12.18;;;7.43;;
68010;SDS011;54794;48.348;7.878;2024-03-07T12:12:50;11.73;;;7.10;;
68010;SDS011;54794;48.348;7.878;2024-03-07T12:15:17;13.13;;;7.85;;
68010;SDS011;54794;48.348;7.878;2024-03-07T12:17:46;12.82;;;8.15;;
68010;SDS011;54794;48.348;7.878;2024-03-07T12:20:16;12.70;;;7.78;;
68010;SDS011;54794;48.348;7.878;2024-03-07T12:23:00;11.75;;;7.38;;
68010;SDS011;54794;48.348;7.878;2024-03-07T12:25:31;12.05;;;7.55;;
68010;SDS011;54794;48.348;7.878;2024-03-07T12:28:12;12.07;;;7.45;;
68010;SDS011;54794;48.348;7.878;2024-03-07T12:33:15;12.70;;;7.55;;
68010;SDS011;54794;48.348;7.878;2024-03-07T12:35:44;11.20;;;7.10;;
68010;SDS011;54794;48.348;7.878;2024-03-07T12:38:13;11.90;;;7.13;;
68010;SDS011;54794;48.348;7.878;2024-03-07T12:40:42;11.13;;;6.93;;
68010;SDS011;54794;48.348;7.878;2024-03-07T12:43:16;10.43;;;6.72;;
68010;SDS011;54794;48.348;7.878;2024-03-07T12:49:12;10.27;;;6.47;;
68010;SDS011;54794;48.348;7.878;2024-03-07T12:51:42;10.52;;;6.70;;
68010;SDS011;54794;48.348;7.878;2024-03-07T12:56:36;8.75;;;5.47;;
68010;SDS011;54794;48.348;7.878;2024-03-07T12:59:03;9.18;;;5.93;;
68010;SDS011;54794;48.348;7.878;2024-03-07T13:01:30;10.48;;;6.22;;
68010;SDS011;54794;48.348;7.878;2024-03-07T13:04:00;10.20;;;6.53;;
68010;SDS011;54794;48.348;7.878;2024-03-07T13:06:27;11.65;;;6.63;;
68010;SDS011;54794;48.348;7.878;2024-03-07T13:08:56;10.93;;;6.68;;
68010;SDS011;54794;48.348;7.878;2024-03-07T13:11:23;9.52;;;5.95;;
68010;SDS011;54794;48.348;7.878;2024-03-07T13:13:58;9.68;;;5.88;;
68010;SDS011;54794;48.348;7.878;2024-03-07T13:16:25;11.20;;;6.85;;
68010;SDS011;54794;48.348;7.878;2024-03-07T13:18:58;9.52;;;6.05;;
68010;SDS011;54794;48.348;7.878;2024-03-07T13:21:25;8.52;;;5.57;;
68010;SDS011;54794;48.348;7.878;2024-03-07T13:23:53;9.32;;;5.85;;
68010;SDS011;54794;48.348;7.878;2024-03-07T13:26:21;9.57;;;6.32;;
68010;SDS011;54794;48.348;7.878;2024-03-07T13:28:51;10.27;;;5.65;;
68010;SDS011;54794;48.348;7.878;2024-03-07T13:31:20;10.70;;;6.32;;
68010;SDS011;54794;48.348;7.878;2024-03-07T13:33:46;10.77;;;6.05;;
68010;SDS011;54794;48.348;7.878;2024-03-07T13:36:17;9.38;;;5.70;;
68010;SDS011;54794;48.348;7.878;2024-03-07T13:38:51;10.25;;;6.25;;
68010;SDS011;54794;48.348;7.878;2024-03-07T13:41:20;11.70;;;6.13;;
68010;SDS011;54794;48.348;7.878;2024-03-07T13:43:48;12.27;;;6.95;;
68010;SDS011;54794;48.348;7.878;2024-03-07T13:49:57;8.65;;;5.35;;
68010;SDS011;54794;48.348;7.878;2024-03-07T13:52:25;9.60;;;5.60;;
68010;SDS011;54794;48.348;7.878;2024-03-07T13:54:54;8.98;;;5.18;;
68010;SDS011;54794;48.348;7.878;2024-03-07T13:57:26;8.25;;;5.35;;
68010;SDS011;54794;48.348;7.878;2024-03-07T14:03:16;10.52;;;5.75;;
68010;SDS011;54794;48.348;7.878;2024-03-07T14:06:34;9.13;;;5.38;;
68010;SDS011;54794;48.348;7.878;2024-03-07T14:28:26;9.38;;;5.70;;
68010;SDS011;54794;48.348;7.878;2024-03-07T14:31:18;9.10;;;5.65;;
68010;SDS011;54794;48.348;7.878;2024-03-07T14:34:06;8.57;;;5.07;;
68010;SDS011;54794;48.348;7.878;2024-03-07T14:37:17;8.68;;;5.57;;
68010;SDS011;54794;48.348;7.878;2024-03-07T14:40:09;7.30;;;4.30;;
68010;SDS011;54794;48.348;7.878;2024-03-07T14:42:42;8.43;;;4.87;;
68010;SDS011;54794;48.348;7.878;2024-03-07T14:45:21;8.68;;;5.50;;
68010;SDS011;54794;48.348;7.878;2024-03-07T14:47:58;8.98;;;5.50;;
68010;SDS011;54794;48.348;7.878;2024-03-07T14:52:56;8.27;;;5.35;;
68010;SDS011;54794;48.348;7.878;2024-03-07T14:55:23;8.27;;;5.28;;
68010;SDS011;54794;48.348;7.878;2024-03-07T14:57:50;7.35;;;4.80;;
68010;SDS011;54794;48.348;7.878;2024-03-07T15:00:17;12.65;;;5.97;;
68010;SDS011;54794;48.348;7.878;2024-03-07T15:03:00;10.23;;;5.70;;
68010;SDS011;54794;48.348;7.878;2024-03-07T15:05:28;8.38;;;5.47;;
68010;SDS011;54794;48.348;7.878;2024-03-07T15:07:56;8.77;;;5.00;;
68010;SDS011;54794;48.348;7.878;2024-03-07T15:10:27;9.82;;;5.72;;
68010;SDS011;54794;48.348;7.878;2024-03-07T15:13:00;8.77;;;5.35;;
68010;SDS011;54794;48.348;7.878;2024-03-07T15:15:29;10.82;;;5.68;;
68010;SDS011;54794;48.348;7.878;2024-03-07T15:17:59;8.05;;;5.32;;
68010;SDS011;54794;48.348;7.878;2024-03-07T15:22:59;7.32;;;4.47;;
68010;SDS011;54794;48.348;7.878;2024-03-07T15:25:29;7.18;;;4.63;;
68010;SDS011;54794;48.348;7.878;2024-03-07T15:27:56;7.10;;;3.92;;
68010;SDS011;54794;48.348;7.878;2024-03-07T15:30:27;9.30;;;4.22;;
68010;SDS011;54794;48.348;7.878;2024-03-07T15:33:05;7.07;;;4.63;;
68010;SDS011;54794;48.348;7.878;2024-03-07T15:35:32;7.40;;;4.53;;
68010;SDS011;54794;48.348;7.878;2024-03-07T15:37:59;10.30;;;5.90;;
68010;SDS011;54794;48.348;7.878;2024-03-07T15:40:26;8.15;;;5.03;;
68010;SDS011;54794;48.348;7.878;2024-03-07T15:42:54;9.55;;;5.28;;
68010;SDS011;54794;48.348;7.878;2024-03-07T15:45:27;9.38;;;4.95;;
68010;SDS011;54794;48.348;7.878;2024-03-07T15:47:55;8.00;;;5.07;;
68010;SDS011;54794;48.348;7.878;2024-03-07T15:50:27;7.60;;;4.75;;
68010;SDS011;54794;48.348;7.878;2024-03-07T15:52:57;7.10;;;4.60;;
68010;SDS011;54794;48.348;7.878;2024-03-07T15:55:27;7.43;;;4.72;;
68010;SDS011;54794;48.348;7.878;2024-03-07T15:57:55;7.50;;;5.00;;
68010;SDS011;54794;48.348;7.878;2024-03-07T16:00:26;7.03;;;4.20;;
68010;SDS011;54794;48.348;7.878;2024-03-07T16:02:55;7.32;;;4.50;;
68010;SDS011;54794;48.348;7.878;2024-03-07T16:05:26;8.35;;;4.90;;
68010;SDS011;54794;48.348;7.878;2024-03-07T16:08:01;6.95;;;4.63;;
68010;SDS011;54794;48.348;7.878;2024-03-07T16:10:35;8.00;;;4.50;;
68010;SDS011;54794;48.348;7.878;2024-03-07T16:13:04;7.68;;;4.93;;
68010;SDS011;54794;48.348;7.878;2024-03-07T16:15:38;9.30;;;5.40;;
68010;SDS011;54794;48.348;7.878;2024-03-07T16:18:08;8.00;;;4.82;;
68010;SDS011;54794;48.348;7.878;2024-03-07T16:20:38;7.88;;;4.95;;
68010;SDS011;54794;48.348;7.878;2024-03-07T16:23:05;8.55;;;4.95;;
68010;SDS011;54794;48.348;7.878;2024-03-07T16:25:33;8.85;;;5.40;;
68010;SDS011;54794;48.348;7.878;2024-03-07T16:28:06;9.02;;;5.25;;
68010;SDS011;54794;48.348;7.878;2024-03-07T16:30:34;10.75;;;5.35;;
68010;SDS011;54794;48.348;7.878;2024-03-07T16:33:02;7.25;;;4.68;;
68010;SDS011;54794;48.348;7.878;2024-03-07T16:35:31;9.48;;;5.15;;
68010;SDS011;54794;48.348;7.878;2024-03-07T16:37:58;8.38;;;5.03;;
68010;SDS011;54794;48.348;7.878;2024-03-07T16:42:57;8.05;;;4.68;;